Silly, Belgium
Current Conditions -  °F | °C
As of 1:33 PM on Friday 24 Oct 2014 (Local Time) from EBCV Reporting Station
Overcast Overcast  
Wind Chill: 13°   Ceiling: 2800
Heat Index: 13°   Visibility: 6mi
Dew Point: 10°   Wind: 15mph
Humidity: 82%   Direction: 200°SSW
Pressure: 30.09"   Gusts: NA
Location:  50.65°N, 3.92°E
Report Text: EBCV 241133Z AUTO 20013KT 9999 SCT016/// OVC028/// 13/10 Q1019 WHT
Loading
Personal Weather Stations






























Interactive Weather Map
Tropical Storm Tracking
New forecast layout! Learn more

10-Day Weather Forecast

Advertisements
Track Severe Weather on mobile